Time;durP1;ratioP1;P1;durP2;ratioP2;P2;SDS_P1;SDS_P2;PMS_P1;PMS_P2;Temp;Humidity;BMP_temperature;BMP_pressure;BME280_temperature;BME280_humidity;BME280_pressure;Samples;Min_cycle;Max_cycle;Signal;HPM_P1;HPM_P2
2023/06/18 00:00:50;;;;;;;;;;;;;;;22.63;32.96;97272.75;5007154;28;924;-79
2023/06/18 00:03:16;;;;;;;;;;;;;;;22.59;33.05;97289.16;5005911;28;1309;-79
2023/06/18 00:05:42;;;;;;;;;;;;;;;22.57;32.93;97288.81;4984653;28;1128;-79
2023/06/18 00:08:08;;;;;;;;;;;;;;;22.57;33.25;97285.97;4983474;28;1285;-78
2023/06/18 00:10:33;;;;;;;;;;;;;;;22.67;33.04;97289.63;4983773;28;1989;-78
2023/06/18 00:12:59;;;;;;;;;;;;;;;22.65;33.09;97280.81;4983179;28;880;-79
2023/06/18 00:15:24;;;;;;;;;;;;;;;22.70;32.93;97283.81;4967656;28;720;-79
2023/06/18 00:17:51;;;;;;;;;;;;;;;22.43;33.48;97283.72;4983326;28;1323;-79
2023/06/18 00:20:16;;;;;;;;;;;;;;;22.50;33.38;97280.59;4967473;28;1073;-79
2023/06/18 00:22:43;;;;;;;;;;;;;;;22.45;33.62;97284.06;4945653;29;1141;-79
2023/06/18 00:25:09;;;;;;;;;;;;;;;22.47;33.30;97281.53;4944672;29;853;-78
2023/06/18 00:27:35;;;;;;;;;;;;;;;22.48;32.98;97283.09;4944957;29;1492;-79
2023/06/18 00:30:00;;;;;;;;;;;;;;;22.58;33.10;97281.88;4943957;29;1972;-79
2023/06/18 00:32:28;;;;;;;;;;;;;;;22.41;33.45;97277.75;4945205;29;1054;-79
2023/06/18 00:34:55;;;;;;;;;;;;;;;22.66;32.70;97280.31;4928627;29;897;-79
2023/06/18 00:37:20;;;;;;;;;;;;;;;22.71;32.76;97282.53;4945378;29;1276;-79
2023/06/18 00:39:46;;;;;;;;;;;;;;;22.46;33.10;97286.41;4928298;29;1378;-78
2023/06/18 00:42:12;;;;;;;;;;;;;;;22.39;33.15;97283.09;4931512;29;1134;-79
2023/06/18 00:44:41;;;;;;;;;;;;;;;22.46;33.21;97279.97;4963697;29;836;-79
2023/06/18 00:47:12;;;;;;;;;;;;;;;22.41;33.06;97272.88;4963364;28;772;-79
2023/06/18 00:49:38;;;;;;;;;;;;;;;22.43;32.99;97278.06;5008128;28;1910;-79
2023/06/18 00:52:05;;;;;;;;;;;;;;;22.56;33.26;97278.72;4999852;28;839;-78
2023/06/18 00:54:31;;;;;;;;;;;;;;;22.68;32.89;97280.63;5011970;28;1038;-79
2023/06/18 00:56:59;;;;;;;;;;;;;;;22.54;32.99;97275.59;5003413;28;1542;-79
2023/06/18 00:59:25;;;;;;;;;;;;;;;22.67;33.08;97273.41;4960632;29;919;-79
2023/06/18 01:01:54;;;;;;;;;;;;;;;22.49;33.15;97274.16;4944777;29;905;-79
2023/06/18 01:04:23;;;;;;;;;;;;;;;22.62;32.93;97271.19;4941234;29;932;-79
2023/06/18 01:06:51;;;;;;;;;;;;;;;22.54;32.89;97276.38;4915563;29;1167;-79
2023/06/18 01:09:21;;;;;;;;;;;;;;;22.50;33.40;97286.28;4960427;28;1907;-79
2023/06/18 01:11:51;;;;;;;;;;;;;;;22.32;33.71;97279.28;4961043;28;793;-79
2023/06/18 01:14:19;;;;;;;;;;;;;;;22.36;33.40;97274.25;4940566;29;986;-79
2023/06/18 01:16:48;;;;;;;;;;;;;;;22.34;33.40;97279.63;4925766;29;859;-79
2023/06/18 01:19:27;;;;;;;;;;;;;;;22.41;33.32;97277.75;4941053;29;1149;-80
2023/06/18 01:21:55;;;;;;;;;;;;;;;22.51;33.07;97280.13;4941375;29;890;-79
2023/06/18 01:24:23;;;;;;;;;;;;;;;22.54;33.12;97281.25;4940646;29;1142;-79
2023/06/18 01:26:49;;;;;;;;;;;;;;;22.54;33.10;97284.09;4940952;29;1351;-79
2023/06/18 01:29:16;;;;;;;;;;;;;;;22.48;33.26;97283.09;4940867;29;1914;-79
2023/06/18 01:31:44;;;;;;;;;;;;;;;22.50;33.17;97291.94;4941775;29;992;-78
2023/06/18 01:34:10;;;;;;;;;;;;;;;22.45;33.36;97278.41;4940778;29;1110;-79
2023/06/18 01:36:37;;;;;;;;;;;;;;;22.55;33.05;97285.66;4984740;28;894;-79
2023/06/18 01:39:26;;;;;;;;;;;;;;;22.60;32.72;97285.03;5017393;28;1241;-79
2023/06/18 01:41:53;;;;;;;;;;;;;;;22.41;33.21;97294.75;4960864;29;1124;-79
2023/06/18 01:44:19;;;;;;;;;;;;;;;22.24;33.12;97289.34;4927699;28;1195;-79
2023/06/18 01:46:44;;;;;;;;;;;;;;;22.24;33.38;97303.50;4976672;28;1143;-79
2023/06/18 01:49:11;;;;;;;;;;;;;;;22.35;33.03;97297.41;4959221;29;1950;-79
2023/06/18 01:51:37;;;;;;;;;;;;;;;22.24;33.17;97299.91;4960016;29;798;-79
2023/06/18 01:54:03;;;;;;;;;;;;;;;22.40;33.04;97298.84;4959496;29;1283;-79
2023/06/18 01:56:28;;;;;;;;;;;;;;;22.61;32.51;97300.78;4944232;29;942;-79
2023/06/18 01:58:55;;;;;;;;;;;;;;;22.64;32.42;97302.72;4959175;28;1391;-79
2023/06/18 02:01:21;;;;;;;;;;;;;;;22.44;32.70;97305.16;4960121;28;1338;-79
2023/06/18 02:03:46;;;;;;;;;;;;;;;22.45;32.42;97306.75;4959099;29;849;-79
2023/06/18 02:06:13;;;;;;;;;;;;;;;22.55;32.48;97308.34;4975699;28;1039;-79
2023/06/18 02:08:41;;;;;;;;;;;;;;;22.40;32.75;97304.53;4974724;28;1911;-78
2023/06/18 02:11:06;;;;;;;;;;;;;;;22.32;32.88;97310.47;4960111;29;1159;-79
2023/06/18 02:13:32;;;;;;;;;;;;;;;22.26;32.73;97312.31;4973824;28;927;-79
2023/06/18 02:15:58;;;;;;;;;;;;;;;22.28;32.99;97311.88;4995004;28;924;-78
2023/06/18 02:18:30;;;;;;;;;;;;;;;22.20;33.21;97307.75;5000958;28;1189;-79
2023/06/18 02:20:56;;;;;;;;;;;;;;;22.40;32.48;97310.19;5001994;28;1333;-78
2023/06/18 02:23:22;;;;;;;;;;;;;;;22.41;32.60;97306.09;4942958;28;1285;-79
2023/06/18 02:25:49;;;;;;;;;;;;;;;22.62;32.41;97310.88;4944132;29;808;-79
2023/06/18 02:28:15;;;;;;;;;;;;;;;22.50;32.59;97308.97;4942809;29;1168;-78
2023/06/18 02:30:41;;;;;;;;;;;;;;;22.72;32.26;97309.63;4943271;29;1975;-79
2023/06/18 02:33:06;;;;;;;;;;;;;;;22.75;31.86;97311.56;4958924;28;1184;-79
2023/06/18 02:35:32;;;;;;;;;;;;;;;22.70;32.08;97311.38;4943095;29;1280;-78
2023/06/18 02:37:58;;;;;;;;;;;;;;;22.65;32.44;97315.63;4925961;29;1217;-78
2023/06/18 02:40:24;;;;;;;;;;;;;;;22.55;32.48;97316.84;4907873;29;1613;-79
2023/06/18 02:42:52;;;;;;;;;;;;;;;22.77;32.21;97317.53;4908314;29;1205;-79
2023/06/18 02:45:18;;;;;;;;;;;;;;;22.80;32.09;97310.94;4939628;29;778;-79
2023/06/18 02:47:44;;;;;;;;;;;;;;;22.62;32.68;97305.19;4946251;28;1070;-79
2023/06/18 02:50:10;;;;;;;;;;;;;;;22.49;32.88;97319.50;4954696;29;1977;-78
2023/06/18 02:52:37;;;;;;;;;;;;;;;22.43;32.79;97315.69;4939738;29;1349;-79
2023/06/18 02:55:02;;;;;;;;;;;;;;;22.73;32.54;97311.22;4988379;28;1448;-79
2023/06/18 02:57:28;;;;;;;;;;;;;;;22.62;32.61;97314.50;4997826;28;1320;-79
2023/06/18 02:59:53;;;;;;;;;;;;;;;22.67;32.47;97313.09;5012802;28;771;-79
2023/06/18 03:02:19;;;;;;;;;;;;;;;22.63;32.69;97309.59;5013981;28;1167;-79
2023/06/18 03:04:45;;;;;;;;;;;;;;;22.58;32.72;97321.56;5012991;28;1233;-79
2023/06/18 03:07:10;;;;;;;;;;;;;;;22.44;33.03;97316.50;4997750;28;1299;-79
2023/06/18 03:09:36;;;;;;;;;;;;;;;22.35;32.88;97318.03;5012989;28;1886;-79
2023/06/18 03:12:02;;;;;;;;;;;;;;;22.39;32.89;97319.94;4996502;28;1158;-79
2023/06/18 03:14:28;;;;;;;;;;;;;;;22.48;32.69;97319.97;4996871;28;1218;-79
2023/06/18 03:16:56;;;;;;;;;;;;;;;22.66;32.19;97319.25;4949026;28;1271;-79
2023/06/18 03:19:23;;;;;;;;;;;;;;;22.55;32.30;97311.19;4980672;28;1311;-80
2023/06/18 03:21:50;;;;;;;;;;;;;;;22.65;32.40;97320.50;4980744;28;1106;-79
2023/06/18 03:24:17;;;;;;;;;;;;;;;22.50;32.57;97320.31;4999645;28;1243;-79
2023/06/18 03:26:45;;;;;;;;;;;;;;;22.59;32.48;97318.28;5000582;28;1649;-79
2023/06/18 03:29:10;;;;;;;;;;;;;;;22.66;32.27;97314.34;4999874;28;1910;-79
2023/06/18 03:31:37;;;;;;;;;;;;;;;22.73;32.16;97319.72;5000293;28;760;-79
2023/06/18 03:34:02;;;;;;;;;;;;;;;22.55;32.72;97314.00;4999526;28;1477;-79
2023/06/18 03:36:29;;;;;;;;;;;;;;;22.58;32.33;97315.91;5000254;28;1955;-79
2023/06/18 03:38:55;;;;;;;;;;;;;;;22.54;32.46;97309.59;5024502;28;1622;-78
2023/06/18 03:41:21;;;;;;;;;;;;;;;22.45;32.66;97312.41;5023995;28;1138;-79
2023/06/18 03:43:47;;;;;;;;;;;;;;;22.51;32.39;97311.31;5018763;28;1306;-79
2023/06/18 03:46:13;;;;;;;;;;;;;;;22.47;32.75;97318.38;5036898;28;1270;-79
2023/06/18 03:48:41;;;;;;;;;;;;;;;22.47;32.61;97315.56;5003230;28;1109;-79
2023/06/18 03:51:07;;;;;;;;;;;;;;;22.65;32.53;97321.28;5020482;28;1983;-79
2023/06/18 03:53:37;;;;;;;;;;;;;;;22.73;31.89;97325.38;5019673;28;1206;-79
2023/06/18 03:56:06;;;;;;;;;;;;;;;22.59;32.29;97317.50;5001050;28;1150;-80
2023/06/18 03:58:31;;;;;;;;;;;;;;;22.58;32.36;97328.03;4999755;28;1427;-79
2023/06/18 04:00:57;;;;;;;;;;;;;;;22.51;32.63;97331.16;4984489;28;1287;-78
2023/06/18 04:03:23;;;;;;;;;;;;;;;22.23;33.12;97324.63;4999480;28;967;-79
2023/06/18 04:05:48;;;;;;;;;;;;;;;22.53;32.38;97336.34;5000432;28;963;-79
2023/06/18 04:08:14;;;;;;;;;;;;;;;22.70;32.05;97332.03;4999502;28;1173;-79
2023/06/18 04:10:40;;;;;;;;;;;;;;;22.80;31.89;97332.84;5000472;28;1981;-79
2023/06/18 04:13:06;;;;;;;;;;;;;;;22.59;31.98;97340.97;4998954;28;1381;-79
2023/06/18 04:15:32;;;;;;;;;;;;;;;22.73;32.07;97339.56;5000233;28;1400;-78
2023/06/18 04:17:58;;;;;;;;;;;;;;;22.60;32.39;97336.88;5003158;28;1107;-79
2023/06/18 04:20:23;;;;;;;;;;;;;;;22.77;31.93;97337.38;4983703;28;1273;-78
2023/06/18 04:22:50;;;;;;;;;;;;;;;22.70;32.12;97337.69;5017392;28;2097;-79
2023/06/18 04:25:17;;;;;;;;;;;;;;;22.70;31.94;97346.19;5017969;28;1344;-79
2023/06/18 04:27:48;;;;;;;;;;;;;;;22.74;31.90;97346.03;5021277;28;1471;-79
2023/06/18 04:30:13;;;;;;;;;;;;;;;22.57;31.99;97346.31;5019651;28;1957;-79
2023/06/18 04:32:40;;;;;;;;;;;;;;;22.64;32.09;97348.06;4987643;28;1342;-79
2023/06/18 04:35:06;;;;;;;;;;;;;;;22.58;32.22;97344.25;5003448;28;1139;-79
2023/06/18 04:37:32;;;;;;;;;;;;;;;22.77;31.63;97348.72;5004020;28;1203;-79
2023/06/18 04:39:58;;;;;;;;;;;;;;;22.68;31.73;97348.69;5004012;28;1215;-79
2023/06/18 04:42:23;;;;;;;;;;;;;;;22.62;31.82;97356.25;5019677;28;1363;-79
2023/06/18 04:44:49;;;;;;;;;;;;;;;22.54;31.93;97350.09;5040956;28;1445;-79
2023/06/18 04:47:16;;;;;;;;;;;;;;;22.38;32.44;97352.38;5059642;28;1083;-79
2023/06/18 04:49:44;;;;;;;;;;;;;;;22.48;32.28;97357.59;5039269;28;1959;-79
2023/06/18 04:52:10;;;;;;;;;;;;;;;22.58;32.24;97355.59;5004125;28;1147;-79
2023/06/18 04:54:38;;;;;;;;;;;;;;;22.59;32.18;97355.16;5019199;28;1159;-78
2023/06/18 04:57:04;;;;;;;;;;;;;;;22.54;32.40;97354.97;5019949;28;1234;-79
2023/06/18 04:59:29;;;;;;;;;;;;;;;22.35;32.81;97352.06;5011851;28;1516;-79
2023/06/18 05:01:55;;;;;;;;;;;;;;;22.27;32.90;97356.41;5002809;28;1721;-79
2023/06/18 05:04:21;;;;;;;;;;;;;;;22.62;32.33;97367.59;5019018;28;1133;-79
2023/06/18 05:06:46;;;;;;;;;;;;;;;22.66;32.54;97356.91;5003107;28;1081;-79
2023/06/18 05:09:13;;;;;;;;;;;;;;;22.63;32.61;97363.50;4999698;28;1910;-80
2023/06/18 05:11:40;;;;;;;;;;;;;;;22.79;32.34;97368.88;4961382;29;1139;-79
2023/06/18 05:14:06;;;;;;;;;;;;;;;22.61;32.50;97372.47;4960795;28;1227;-79
2023/06/18 05:16:32;;;;;;;;;;;;;;;22.38;32.96;97372.22;4959924;28;1477;-80
2023/06/18 05:18:58;;;;;;;;;;;;;;;22.60;32.58;97384.28;4959543;29;1406;-80
2023/06/18 05:21:24;;;;;;;;;;;;;;;22.55;32.93;97379.22;4945974;29;898;-79
2023/06/18 05:23:50;;;;;;;;;;;;;;;22.43;32.88;97377.25;4963685;28;1221;-79
2023/06/18 05:26:15;;;;;;;;;;;;;;;22.49;33.14;97383.94;4964405;28;1252;-79
2023/06/18 05:28:41;;;;;;;;;;;;;;;22.73;32.80;97384.94;4963762;28;1233;-79
2023/06/18 05:31:07;;;;;;;;;;;;;;;22.50;32.82;97388.34;4985991;28;1985;-79
2023/06/18 05:33:32;;;;;;;;;;;;;;;22.42;33.12;97404.03;4945116;28;1438;-79
2023/06/18 05:36:00;;;;;;;;;;;;;;;22.65;32.82;97400.69;4964306;28;1366;-79
2023/06/18 05:38:25;;;;;;;;;;;;;;;22.58;32.99;97395.28;4967557;28;1205;-80
2023/06/18 05:40:51;;;;;;;;;;;;;;;22.68;32.61;97404.63;4983573;28;1161;-79
2023/06/18 05:43:17;;;;;;;;;;;;;;;22.90;32.48;97404.56;4925341;29;1482;-79
2023/06/18 05:45:50;;;;;;;;;;;;;;;22.79;32.55;97402.94;4942083;29;1165;-79
2023/06/18 05:48:16;;;;;;;;;;;;;;;22.56;32.91;97412.00;4924635;29;1656;-79
2023/06/18 05:50:48;;;;;;;;;;;;;;;22.62;32.83;97408.06;4941926;29;1971;-79
2023/06/18 05:53:14;;;;;;;;;;;;;;;22.77;32.59;97413.97;4954180;29;1654;-79
2023/06/18 05:55:40;;;;;;;;;;;;;;;22.75;32.43;97410.03;4957415;28;1151;-80
2023/06/18 05:58:07;;;;;;;;;;;;;;;22.68;32.52;97411.09;4941331;29;1485;-79
2023/06/18 06:00:33;;;;;;;;;;;;;;;22.88;32.51;97408.66;4939603;29;1306;-80
2023/06/18 06:02:59;;;;;;;;;;;;;;;22.61;33.13;97417.84;4940654;29;1150;-80
2023/06/18 06:05:26;;;;;;;;;;;;;;;22.53;33.20;97415.75;4941154;29;1243;-80
2023/06/18 06:07:52;;;;;;;;;;;;;;;22.53;33.06;97415.75;4940526;29;1223;-79
2023/06/18 06:10:18;;;;;;;;;;;;;;;22.81;32.67;97420.28;4905176;29;1989;-79
2023/06/18 06:12:45;;;;;;;;;;;;;;;22.57;33.13;97422.06;4914696;29;1408;-80
2023/06/18 06:15:10;;;;;;;;;;;;;;;22.69;32.89;97423.22;4934800;28;1534;-80
2023/06/18 06:17:36;;;;;;;;;;;;;;;22.75;32.73;97421.38;4963327;28;1126;-79
2023/06/18 06:20:02;;;;;;;;;;;;;;;22.98;32.20;97431.41;4946546;28;1143;-79
2023/06/18 06:22:28;;;;;;;;;;;;;;;22.62;32.98;97429.97;4983065;28;1197;-79
2023/06/18 06:24:54;;;;;;;;;;;;;;;22.45;33.19;97431.47;4984328;28;1368;-79
2023/06/18 06:27:19;;;;;;;;;;;;;;;22.57;32.97;97436.25;5002389;28;1160;-79
2023/06/18 06:29:46;;;;;;;;;;;;;;;22.71;32.79;97444.19;5017477;28;1977;-79
2023/06/18 06:32:11;;;;;;;;;;;;;;;22.52;33.41;97439.69;4969564;28;979;-79
2023/06/18 06:34:37;;;;;;;;;;;;;;;22.63;33.26;97442.88;4996843;28;1490;-79
2023/06/18 06:37:03;;;;;;;;;;;;;;;22.70;33.04;97448.28;4982072;28;1329;-79
2023/06/18 06:39:29;;;;;;;;;;;;;;;22.77;32.79;97453.66;5011181;28;1279;-80
2023/06/18 06:41:54;;;;;;;;;;;;;;;22.69;32.76;97452.38;5018470;28;1332;-79
2023/06/18 06:44:20;;;;;;;;;;;;;;;22.66;32.83;97450.47;5002359;28;1432;-79
2023/06/18 06:47:09;;;;;;;;;;;;;;;22.68;32.86;97447.94;5033766;28;1187;-79
2023/06/18 06:49:53;;;;;;;;;;;;;;;22.81;32.83;97442.97;5056511;28;1906;-80
2023/06/18 06:52:41;;;;;;;;;;;;;;;22.74;33.18;97443.28;5043567;28;1152;-79
2023/06/18 06:55:08;;;;;;;;;;;;;;;22.81;33.04;97440.13;5022172;28;1361;-79
2023/06/18 06:57:33;;;;;;;;;;;;;;;22.59;33.56;97453.59;4998274;28;951;-78
2023/06/18 06:59:59;;;;;;;;;;;;;;;22.96;32.64;97451.72;4981211;28;1141;-80
2023/06/18 07:02:25;;;;;;;;;;;;;;;22.68;33.13;97450.78;4997496;28;1137;-79
2023/06/18 07:04:50;;;;;;;;;;;;;;;22.84;33.09;97447.69;4975940;28;1539;-79
2023/06/18 07:07:16;;;;;;;;;;;;;;;22.80;33.17;97443.44;4994526;28;1427;-79
2023/06/18 07:09:41;;;;;;;;;;;;;;;23.03;32.60;97456.31;5016038;28;1902;-79
2023/06/18 07:12:07;;;;;;;;;;;;;;;22.82;32.99;97455.91;4984458;28;1155;-79
2023/06/18 07:14:33;;;;;;;;;;;;;;;22.86;33.06;97459.38;5017157;28;880;-79
2023/06/18 07:16:58;;;;;;;;;;;;;;;22.62;33.28;97458.31;4996852;28;1495;-79
2023/06/18 07:19:24;;;;;;;;;;;;;;;22.71;33.34;97449.88;4979442;28;908;-79
2023/06/18 07:21:50;;;;;;;;;;;;;;;22.65;33.42;97457.41;4959019;29;1672;-79
2023/06/18 07:24:16;;;;;;;;;;;;;;;22.90;33.11;97461.31;4958371;29;994;-79
2023/06/18 07:26:41;;;;;;;;;;;;;;;22.74;33.15;97462.31;4958210;29;1494;-79
2023/06/18 07:29:07;;;;;;;;;;;;;;;22.75;33.26;97463.91;4957635;29;1982;-79
2023/06/18 07:31:33;;;;;;;;;;;;;;;22.77;33.23;97456.50;4958640;29;1139;-79
2023/06/18 07:33:58;;;;;;;;;;;;;;;22.56;33.86;97463.03;4961411;28;1271;-79
2023/06/18 07:36:24;;;;;;;;;;;;;;;22.80;33.10;97466.16;5011434;28;1360;-79
2023/06/18 07:38:49;;;;;;;;;;;;;;;22.72;33.69;97462.00;5008263;28;1069;-79
2023/06/18 07:41:16;;;;;;;;;;;;;;;22.71;33.39;97461.22;5020060;28;889;-79
2023/06/18 07:43:42;;;;;;;;;;;;;;;22.60;33.85;97466.53;5034853;28;1405;-79
2023/06/18 07:46:07;;;;;;;;;;;;;;;22.74;33.46;97465.16;5020308;28;1219;-79
2023/06/18 07:48:33;;;;;;;;;;;;;;;22.80;33.44;97463.31;5019007;28;891;-79
2023/06/18 07:50:58;;;;;;;;;;;;;;;22.87;33.60;97463.00;5020484;28;1906;-79
2023/06/18 07:53:24;;;;;;;;;;;;;;;22.62;33.78;97455.50;5022606;28;918;-79
2023/06/18 07:55:49;;;;;;;;;;;;;;;22.79;33.69;97456.81;5060373;28;1305;-79
2023/06/18 07:58:15;;;;;;;;;;;;;;;22.83;33.71;97451.00;5079225;28;844;-79
2023/06/18 08:00:41;;;;;;;;;;;;;;;22.90;33.42;97458.47;5080968;28;1332;-79
2023/06/18 08:03:06;;;;;;;;;;;;;;;22.78;33.76;97455.25;5079834;28;1151;-79
2023/06/18 08:05:32;;;;;;;;;;;;;;;22.78;33.62;97455.25;5063461;28;1294;-79
2023/06/18 08:07:57;;;;;;;;;;;;;;;22.79;33.77;97468.16;5063085;28;906;-79
2023/06/18 08:10:23;;;;;;;;;;;;;;;22.84;33.63;97469.59;5078860;28;1969;-79
2023/06/18 08:12:48;;;;;;;;;;;;;;;22.99;33.36;97475.53;5062835;28;1131;-80
2023/06/18 08:15:14;;;;;;;;;;;;;;;22.83;33.90;97476.53;5079826;28;982;-79
2023/06/18 08:17:40;;;;;;;;;;;;;;;23.02;33.24;97478.22;5063525;28;1004;-79
2023/06/18 08:20:06;;;;;;;;;;;;;;;22.83;33.40;97485.03;5027180;28;1621;-79
2023/06/18 08:22:32;;;;;;;;;;;;;;;22.79;33.59;97485.19;5024145;28;1436;-79
2023/06/18 08:24:57;;;;;;;;;;;;;;;22.91;33.56;97482.75;5059284;28;952;-79
2023/06/18 08:27:23;;;;;;;;;;;;;;;23.02;33.13;97491.63;5060051;28;974;-79
2023/06/18 08:29:48;;;;;;;;;;;;;;;22.55;33.88;97495.47;5050866;28;2151;-79
2023/06/18 08:32:14;;;;;;;;;;;;;;;22.81;33.30;97490.41;5024295;28;827;-80
2023/06/18 08:34:42;;;;;;;;;;;;;;;22.82;33.25;97494.81;5025396;28;974;-79
2023/06/18 08:37:11;;;;;;;;;;;;;;;22.68;33.36;97490.50;5021072;28;831;-80
2023/06/18 08:39:36;;;;;;;;;;;;;;;22.95;32.52;97487.03;5015330;28;1363;-80
2023/06/18 08:42:02;;;;;;;;;;;;;;;22.72;33.26;97485.47;5001170;28;879;-80
2023/06/18 08:44:28;;;;;;;;;;;;;;;22.61;33.19;97482.28;5016990;28;987;-80
2023/06/18 08:47:00;;;;;;;;;;;;;;;22.62;33.50;97492.34;5017838;28;752;-80
2023/06/18 08:49:26;;;;;;;;;;;;;;;22.63;33.26;97488.25;5006131;28;1981;-80
2023/06/18 08:51:52;;;;;;;;;;;;;;;23.00;32.29;97485.63;5057724;28;775;-80
2023/06/18 08:54:18;;;;;;;;;;;;;;;22.67;32.97;97486.06;5064114;28;922;-80
2023/06/18 08:56:44;;;;;;;;;;;;;;;22.47;33.43;97486.44;5040453;28;1010;-80
2023/06/18 08:59:10;;;;;;;;;;;;;;;22.41;33.46;97484.66;5038873;28;1330;-80
2023/06/18 09:01:36;;;;;;;;;;;;;;;22.71;32.82;97488.78;5024084;28;808;-80
2023/06/18 09:04:02;;;;;;;;;;;;;;;22.50;33.41;97491.19;5022621;28;964;-79
2023/06/18 09:06:28;;;;;;;;;;;;;;;22.61;32.89;97485.91;5023897;28;1144;-80
2023/06/18 09:08:56;;;;;;;;;;;;;;;22.54;33.07;97479.72;5021890;28;1132;-79
2023/06/18 09:11:22;;;;;;;;;;;;;;;22.62;32.97;97492.34;5022711;28;1531;-80
2023/06/18 09:13:47;;;;;;;;;;;;;;;22.52;32.97;97487.88;5038994;28;1043;-79
2023/06/18 09:16:13;;;;;;;;;;;;;;;22.74;32.78;97494.31;5039556;28;1136;-79
2023/06/18 09:18:39;;;;;;;;;;;;;;;22.67;32.68;97494.59;5038555;28;1087;-79
2023/06/18 09:21:04;;;;;;;;;;;;;;;22.38;33.40;97491.25;5022922;28;1385;-79
2023/06/18 09:23:30;;;;;;;;;;;;;;;22.31;33.46;97498.78;5038032;28;1385;-79
2023/06/18 09:25:56;;;;;;;;;;;;;;;22.47;33.07;97488.47;5039754;28;856;-79
2023/06/18 09:28:22;;;;;;;;;;;;;;;22.78;32.38;97488.50;5039030;28;1164;-80
2023/06/18 09:30:51;;;;;;;;;;;;;;;22.29;33.43;97487.13;5039488;28;1979;-79
2023/06/18 09:33:32;;;;;;;;;;;;;;;22.28;33.50;97485.53;5018286;28;808;-79
2023/06/18 09:36:07;;;;;;;;;;;;;;;22.62;32.77;97492.34;5020082;28;953;-79
2023/06/18 09:38:39;;;;;;;;;;;;;;;22.53;32.94;97483.78;5017904;28;1209;-79
2023/06/18 09:41:15;;;;;;;;;;;;;;;22.43;32.93;97485.00;5015309;28;1575;-78
2023/06/18 09:43:43;;;;;;;;;;;;;;;22.51;32.83;97478.59;4998615;28;906;-79
2023/06/18 09:46:08;;;;;;;;;;;;;;;22.49;32.84;97483.94;5016231;28;1453;-79
2023/06/18 09:48:36;;;;;;;;;;;;;;;22.63;32.55;97465.56;4998259;28;1207;-79
2023/06/18 09:51:02;;;;;;;;;;;;;;;22.63;32.54;97472.03;4998760;28;1983;-79
2023/06/18 09:53:27;;;;;;;;;;;;;;;22.50;33.09;97473.38;5014624;28;1138;-79
2023/06/18 09:55:53;;;;;;;;;;;;;;;22.76;32.42;97463.44;4999934;28;779;-79
2023/06/18 09:58:18;;;;;;;;;;;;;;;22.71;32.47;97466.88;4998207;28;1031;-79
2023/06/18 10:01:01;;;;;;;;;;;;;;;22.66;32.66;97464.66;5037045;28;1544;-79
2023/06/18 10:03:26;;;;;;;;;;;;;;;22.42;32.97;97460.72;5020716;28;967;-79
2023/06/18 10:05:52;;;;;;;;;;;;;;;22.58;32.77;97464.13;5028430;28;867;-79
2023/06/18 10:08:17;;;;;;;;;;;;;;;22.39;33.30;97467.34;5018135;28;1272;-79
2023/06/18 10:10:43;;;;;;;;;;;;;;;22.62;32.52;97464.00;5015019;28;1979;-79
2023/06/18 10:13:10;;;;;;;;;;;;;;;22.62;32.76;97452.66;4998146;28;901;-79
2023/06/18 10:15:35;;;;;;;;;;;;;;;22.47;32.69;97448.78;5033654;28;1347;-79
2023/06/18 10:18:01;;;;;;;;;;;;;;;22.73;32.26;97441.66;5037454;28;992;-79
2023/06/18 10:20:27;;;;;;;;;;;;;;;22.75;32.25;97450.53;5027925;28;1526;-79
2023/06/18 10:22:55;;;;;;;;;;;;;;;22.63;32.63;97440.06;5034434;28;1245;-78
2023/06/18 10:25:20;;;;;;;;;;;;;;;22.60;32.31;97438.94;5018225;28;945;-79
2023/06/18 10:27:46;;;;;;;;;;;;;;;22.75;32.40;97444.84;5018217;28;913;-79
2023/06/18 10:30:12;;;;;;;;;;;;;;;22.68;32.55;97444.31;5024917;28;1987;-79
2023/06/18 10:32:38;;;;;;;;;;;;;;;22.65;32.42;97434.72;5073243;28;1345;-79
2023/06/18 10:35:06;;;;;;;;;;;;;;;22.73;32.51;97447.34;5079197;28;777;-79
2023/06/18 10:37:34;;;;;;;;;;;;;;;22.75;32.59;97439.19;5037779;28;1162;-80
2023/06/18 10:39:59;;;;;;;;;;;;;;;22.67;32.48;97431.41;5036774;28;1358;-79
2023/06/18 10:42:25;;;;;;;;;;;;;;;22.51;33.21;97430.41;5038099;28;992;-79
2023/06/18 10:44:55;;;;;;;;;;;;;;;22.63;32.67;97431.53;5037163;28;944;-79
2023/06/18 10:47:21;;;;;;;;;;;;;;;22.34;33.34;97438.34;5038113;28;1062;-79
2023/06/18 10:50:02;;;;;;;;;;;;;;;22.64;32.85;97438.81;4996801;28;1910;-79
2023/06/18 10:52:31;;;;;;;;;;;;;;;22.63;32.71;97438.00;4998632;28;895;-79
2023/06/18 10:55:15;;;;;;;;;;;;;;;22.63;33.04;97449.34;4997950;28;851;-79
2023/06/18 10:57:41;;;;;;;;;;;;;;;22.75;32.63;97449.72;4982299;28;849;-79
2023/06/18 11:00:13;;;;;;;;;;;;;;;22.74;32.52;97448.94;4980623;28;1377;-79
2023/06/18 11:02:39;;;;;;;;;;;;;;;22.71;32.64;97449.88;4997763;28;982;-79
2023/06/18 11:05:05;;;;;;;;;;;;;;;22.62;32.75;97458.31;4997223;28;950;-79
2023/06/18 11:07:31;;;;;;;;;;;;;;;22.92;32.20;97464.47;4983421;28;908;-79
2023/06/18 11:10:01;;;;;;;;;;;;;;;22.49;33.01;97460.47;5016207;28;1906;-79
2023/06/18 11:12:27;;;;;;;;;;;;;;;22.64;32.77;97461.50;5001733;28;830;-79
2023/06/18 11:15:11;;;;;;;;;;;;;;;22.61;32.83;97456.75;5000206;28;923;-79
2023/06/18 11:17:37;;;;;;;;;;;;;;;22.64;32.92;97450.16;5017178;28;910;-79
2023/06/18 11:20:03;;;;;;;;;;;;;;;22.73;32.73;97447.34;5012763;28;1494;-79
2023/06/18 11:22:29;;;;;;;;;;;;;;;22.64;32.82;97461.50;4997721;28;1093;-80
2023/06/18 11:24:58;;;;;;;;;;;;;;;22.58;33.07;97457.66;4981126;28;1159;-79
2023/06/18 11:27:24;;;;;;;;;;;;;;;22.54;33.26;97465.53;4981603;28;1163;-79
2023/06/18 11:29:49;;;;;;;;;;;;;;;22.49;33.49;97471.81;4996616;28;1910;-79
2023/06/18 11:32:15;;;;;;;;;;;;;;;22.48;33.77;97493.69;4996177;28;1564;-79
2023/06/18 11:34:41;;;;;;;;;;;;;;;22.47;33.58;97491.31;4996863;28;1123;-79
2023/06/18 11:37:08;;;;;;;;;;;;;;;22.52;33.33;97493.56;4997433;28;914;-79
2023/06/18 11:39:33;;;;;;;;;;;;;;;22.54;33.32;97513.75;4995998;28;1411;-80
2023/06/18 11:42:20;;;;;;;;;;;;;;;22.64;32.87;97552.25;4964905;28;1389;-79
2023/06/18 11:44:49;;;;;;;;;;;;;;;22.53;32.82;97541.28;4997317;28;777;-80
2023/06/18 11:47:15;;;;;;;;;;;;;;;22.49;32.41;97548.38;4997940;28;959;-79
2023/06/18 11:49:41;;;;;;;;;;;;;;;22.52;32.40;97530.41;4996453;28;1983;-80
2023/06/18 11:52:07;;;;;;;;;;;;;;;22.56;31.78;97550.91;4997474;28;827;-79
2023/06/18 11:54:34;;;;;;;;;;;;;;;22.63;31.60;97557.09;5018709;28;931;-79
2023/06/18 11:57:01;;;;;;;;;;;;;;;22.43;31.76;97553.81;5034961;28;1366;-79
2023/06/18 11:59:27;;;;;;;;;;;;;;;22.58;31.12;97559.75;5035900;28;885;-79
2023/06/18 12:01:52;;;;;;;;;;;;;;;22.49;31.26;97556.88;5053440;28;862;-79
2023/06/18 12:04:18;;;;;;;;;;;;;;;22.65;30.67;97562.31;5053210;28;871;-79
2023/06/18 12:06:43;;;;;;;;;;;;;;;22.33;31.34;97561.47;5051588;28;1340;-80
2023/06/18 12:09:10;;;;;;;;;;;;;;;22.53;30.70;97557.50;5015534;28;1989;-79
2023/06/18 12:12:11;;;;;;;;;;;;;;;22.54;30.59;97570.44;4997383;28;1498;-79
2023/06/18 12:14:37;;;;;;;;;;;;;;;22.46;30.57;97575.56;4957948;29;850;-79
2023/06/18 12:17:15;;;;;;;;;;;;;;;22.69;29.84;97579.19;4957967;29;1605;-79
2023/06/18 12:19:41;;;;;;;;;;;;;;;22.42;30.17;97574.91;4942163;29;966;-79
2023/06/18 12:22:08;;;;;;;;;;;;;;;22.25;30.48;97573.53;4922060;29;1334;-79
2023/06/18 12:24:33;;;;;;;;;;;;;;;22.33;30.05;97572.03;4922377;29;945;-78
2023/06/18 12:26:59;;;;;;;;;;;;;;;22.23;30.30;97570.38;4917903;29;1571;-79
2023/06/18 12:29:26;;;;;;;;;;;;;;;22.16;30.18;97568.56;4904360;29;1918;-79
2023/06/18 12:32:02;;;;;;;;;;;;;;;22.28;30.09;97575.44;4904852;29;863;-79
2023/06/18 12:34:28;;;;;;;;;;;;;;;22.30;30.08;97584.28;4935989;29;1145;-79
2023/06/18 12:36:55;;;;;;;;;;;;;;;22.29;29.82;97574.97;4939223;29;1386;-79
2023/06/18 12:39:21;;;;;;;;;;;;;;;22.59;29.45;97575.53;4938278;29;1213;-79
2023/06/18 12:41:46;;;;;;;;;;;;;;;22.48;29.43;97578.72;4939175;29;1040;-79
2023/06/18 12:44:12;;;;;;;;;;;;;;;22.50;29.35;97576.25;4941120;29;751;-79
2023/06/18 12:46:38;;;;;;;;;;;;;;;22.13;29.92;97568.72;4940268;29;1499;-79
2023/06/18 12:49:07;;;;;;;;;;;;;;;22.10;30.15;97564.72;4982546;28;932;-79
2023/06/18 12:51:40;;;;;;;;;;;;;;;22.13;29.71;97557.38;5004827;28;869;-79
2023/06/18 12:54:14;;;;;;;;;;;;;;;22.19;29.93;97550.66;5057862;28;975;-79
2023/06/18 12:56:50;;;;;;;;;;;;;;;22.18;29.77;97546.25;5064352;28;1233;-79
2023/06/18 12:59:19;;;;;;;;;;;;;;;22.13;29.91;97546.84;5063633;28;1005;-79